»·PEaware :: N8239L KAMA-KLBB

N8239L :: KAMA-KLBB

FLIGHT INFORMATION

Flight Status: Arrived
Operator: Privately registered:
United States
More flights under this callsign
Pilot: Mathew H. (21232)
Aircraft: CESSNA 172 SKYHAWK
(C172)
More flights by this aircraft type
Origin: KAMA Amarillo Intl
United States
Destination: KLBB Lubbock Intl
United States
More flights between these airports :: More routes between these airports
Route: +
File this flight plan on PilotEdge
Remarks:
Altitude:
(Current/Filed)
3,500ft
Speed:
(Current/Filed)
0kts
Departed: 25-Nov-18 01:27 PM
Arrived: 25-Nov-18 03:44 PM
Distance/Time
Traveled:
93nm/2:17
Distance/Time
To Go:
Arrived

Flight Plot

Page will automatically refresh every two minutes.

Flight plan parsing failed; only flown route is shown


Map Options




Map Legend


Flown Route
Filed Route
Departure Airport
Arrival Airport
Navaid (VOR, NDB)
Fix

Horizontal Profiles

Position Reports

Time Latitude Longitude Heading Altitude Ground
Speed
25-Nov-18 13:22 35.214533 -101.713405 225 3610ft 0kts
25-Nov-18 13:23 35.214533 -101.713405 225 3610ft 0kts
25-Nov-18 13:24 35.214533 -101.713405 225 3610ft 0kts
25-Nov-18 13:25 35.215012 -101.714144 316 3610ft 19kts
25-Nov-18 13:26 35.211133 -101.719867 226 3610ft 28kts
25-Nov-18 13:27 35.203463 -101.730308 284 3610ft 26kts
25-Nov-18 13:28 35.203789 -101.730906 319 3610ft 0kts
25-Nov-18 13:29 35.203789 -101.730906 319 3610ft 0kts
25-Nov-18 13:30 35.211529 -101.724419 49 3717ft 76kts
25-Nov-18 13:31 35.219238 -101.704795 132 4209ft 85kts
25-Nov-18 13:32 35.200314 -101.704586 212 4631ft 91kts
25-Nov-18 13:33 35.181588 -101.725652 221 4736ft 85kts
25-Nov-18 13:34 35.161240 -101.735759 167 4886ft 87kts
25-Nov-18 13:35 35.141897 -101.735112 181 5031ft 108kts
25-Nov-18 13:36 35.136750 -101.735511 185 5191ft 99kts
25-Nov-18 13:37 35.100160 -101.749150 203 5173ft 123kts
25-Nov-18 13:38 35.072573 -101.762633 203 5117ft 128kts
25-Nov-18 13:39 35.038229 -101.774189 189 5045ft 130kts
25-Nov-18 13:40 35.002801 -101.779853 184 5056ft 128kts
25-Nov-18 13:41 34.966907 -101.783260 184 5045ft 128kts
25-Nov-18 13:42 34.931232 -101.786596 184 5038ft 128kts
25-Nov-18 13:43 34.895536 -101.789884 184 5034ft 128kts
25-Nov-18 13:44 34.859885 -101.793123 184 5030ft 128kts
25-Nov-18 13:45 34.824371 -101.796309 183 5045ft 128kts
25-Nov-18 13:46 34.788778 -101.798042 179 5053ft 128kts
25-Nov-18 13:47 34.753285 -101.796785 176 5062ft 128kts
25-Nov-18 13:48 34.717729 -101.794512 176 5071ft 128kts
25-Nov-18 13:49 34.682111 -101.792185 176 5080ft 128kts
25-Nov-18 13:50 34.646641 -101.789820 176 5085ft 128kts
25-Nov-18 13:51 34.611103 -101.787170 172 5089ft 128kts
25-Nov-18 13:52 34.575734 -101.782581 173 5098ft 127kts
25-Nov-18 13:53 34.540365 -101.777805 173 5102ft 128kts
25-Nov-18 13:54 34.504930 -101.772969 173 5109ft 128kts
25-Nov-18 13:55 34.469542 -101.769282 176 5117ft 128kts
25-Nov-18 13:56 34.433904 -101.768228 179 5123ft 128kts
25-Nov-18 13:57 34.398343 -101.768179 180 5131ft 128kts
25-Nov-18 13:58 34.377220 -101.768343 180 5136ft 128kts
25-Nov-18 13:59 34.377220 -101.768343 180 5136ft 128kts
25-Nov-18 14:00 34.377220 -101.768343 180 5136ft 128kts
25-Nov-18 14:01 34.377220 -101.768343 180 5136ft 128kts
25-Nov-18 14:02 34.377220 -101.768343 180 5136ft 128kts
25-Nov-18 14:03 34.377220 -101.768343 180 5136ft 128kts
25-Nov-18 14:04 34.377220 -101.768343 180 5136ft 128kts
25-Nov-18 14:05 34.377220 -101.768343 180 5136ft 128kts
25-Nov-18 14:06 34.377220 -101.768343 180 5136ft 128kts
25-Nov-18 14:07 34.377220 -101.768343 180 5136ft 128kts
25-Nov-18 14:08 34.377220 -101.768343 180 5136ft 128kts
25-Nov-18 14:09 34.377220 -101.768343 180 5136ft 128kts
25-Nov-18 14:10 34.377220 -101.768343 180 5136ft 128kts
25-Nov-18 14:11 34.377220 -101.768343 180 5136ft 128kts
25-Nov-18 14:12 34.377220 -101.768343 180 5136ft 128kts
25-Nov-18 14:13 34.377220 -101.768343 180 5136ft 128kts
25-Nov-18 14:14 34.377220 -101.768343 180 5136ft 128kts
25-Nov-18 14:15 34.377220 -101.768343 180 5136ft 128kts
25-Nov-18 14:16 34.377220 -101.768343 180 5136ft 128kts
25-Nov-18 14:17 34.377220 -101.768343 180 5136ft 128kts
25-Nov-18 14:18 34.377220 -101.768343 180 5136ft 128kts
25-Nov-18 14:19 34.377220 -101.768343 180 5136ft 128kts
25-Nov-18 14:20 34.377220 -101.768343 180 5136ft 128kts
25-Nov-18 14:21 34.377220 -101.768343 180 5136ft 128kts
25-Nov-18 14:22 34.377220 -101.768343 180 5136ft 128kts
25-Nov-18 14:23 34.377220 -101.768343 180 5136ft 128kts
25-Nov-18 14:24 34.377220 -101.768343 180 5136ft 128kts
25-Nov-18 14:25 34.377220 -101.768343 180 5136ft 128kts
25-Nov-18 14:26 34.377220 -101.768343 180 5136ft 128kts
25-Nov-18 14:27 34.377220 -101.768343 180 5136ft 128kts
25-Nov-18 14:28 34.377220 -101.768343 180 5136ft 128kts
25-Nov-18 14:29 34.377220 -101.768343 180 5136ft 128kts
25-Nov-18 14:30 34.377220 -101.768343 180 5136ft 128kts
25-Nov-18 14:31 34.377220 -101.768343 180 5136ft 128kts
25-Nov-18 14:32 34.377220 -101.768343 180 5136ft 128kts
25-Nov-18 14:33 34.377220 -101.768343 180 5136ft 128kts
25-Nov-18 14:34 34.377220 -101.768343 180 5136ft 128kts
25-Nov-18 14:35 34.377220 -101.768343 180 5136ft 128kts
25-Nov-18 14:36 34.377220 -101.768343 180 5136ft 128kts
25-Nov-18 14:37 34.377220 -101.768343 180 5136ft 128kts
25-Nov-18 14:38 34.377220 -101.768343 180 5136ft 128kts
25-Nov-18 14:39 34.377220 -101.768343 180 5136ft 128kts
25-Nov-18 14:40 34.377220 -101.768343 180 5136ft 128kts
25-Nov-18 14:41 34.377220 -101.768343 180 5136ft 128kts
25-Nov-18 14:42 34.377220 -101.768343 180 5136ft 128kts
25-Nov-18 14:43 34.377220 -101.768343 180 5136ft 128kts
25-Nov-18 14:44 34.377220 -101.768343 180 5136ft 128kts
25-Nov-18 14:45 34.377220 -101.768343 180 5136ft 128kts
25-Nov-18 14:46 34.377220 -101.768343 180 5136ft 128kts
25-Nov-18 14:47 34.377220 -101.768343 180 5136ft 128kts
25-Nov-18 14:48 34.377220 -101.768343 180 5136ft 128kts
25-Nov-18 14:49 34.377220 -101.768343 180 5136ft 128kts
25-Nov-18 14:50 34.377220 -101.768343 180 5136ft 128kts
25-Nov-18 14:51 34.377220 -101.768343 180 5136ft 128kts
25-Nov-18 14:52 34.377220 -101.768343 180 5136ft 128kts
25-Nov-18 14:53 34.377220 -101.768343 180 5136ft 128kts
25-Nov-18 14:54 34.377220 -101.768343 180 5136ft 128kts
25-Nov-18 14:55 34.377220 -101.768343 180 5136ft 128kts
25-Nov-18 14:56 34.377220 -101.768343 180 5136ft 128kts
25-Nov-18 14:57 34.377220 -101.768343 180 5136ft 128kts
25-Nov-18 14:58 34.377220 -101.768343 180 5136ft 128kts
25-Nov-18 14:59 34.377220 -101.768343 180 5136ft 128kts
25-Nov-18 15:00 34.377220 -101.768343 180 5136ft 128kts
25-Nov-18 15:01 34.377220 -101.768343 180 5136ft 128kts
25-Nov-18 15:02 34.377220 -101.768343 180 5136ft 128kts
25-Nov-18 15:03 34.377220 -101.768343 180 5136ft 128kts
25-Nov-18 15:04 34.377220 -101.768343 180 5136ft 128kts
25-Nov-18 15:05 34.377220 -101.768343 180 5136ft 128kts
25-Nov-18 15:06 34.377220 -101.768343 180 5136ft 128kts
25-Nov-18 15:07 34.377220 -101.768343 180 5136ft 128kts
25-Nov-18 15:08 34.377220 -101.768343 180 5136ft 128kts
25-Nov-18 15:09 34.377220 -101.768343 180 5136ft 128kts
25-Nov-18 15:10 34.377220 -101.768343 180 5136ft 128kts
25-Nov-18 15:11 34.377220 -101.768343 180 5136ft 128kts
25-Nov-18 15:12 34.377220 -101.768343 180 5136ft 128kts
25-Nov-18 15:13 34.377220 -101.768343 180 5136ft 128kts
25-Nov-18 15:14 34.377220 -101.768343 180 5136ft 128kts
25-Nov-18 15:15 34.377220 -101.768343 180 5136ft 128kts
25-Nov-18 15:16 34.377220 -101.768343 180 5136ft 128kts
25-Nov-18 15:17 34.377220 -101.768343 180 5136ft 128kts
25-Nov-18 15:18 34.377220 -101.768343 180 5136ft 128kts
25-Nov-18 15:19 34.377220 -101.768343 180 5136ft 128kts
25-Nov-18 15:20 34.377220 -101.768343 180 5136ft 128kts
25-Nov-18 15:21 34.377220 -101.768343 180 5136ft 128kts
25-Nov-18 15:22 34.377220 -101.768343 180 5136ft 128kts
25-Nov-18 15:23 34.377220 -101.768343 180 5136ft 128kts
25-Nov-18 15:24 34.377220 -101.768343 180 5136ft 128kts
25-Nov-18 15:25 34.373104 -101.768373 180 5130ft 128kts
25-Nov-18 15:26 34.337194 -101.768610 180 5105ft 129kts
25-Nov-18 15:27 34.301427 -101.768798 180 5087ft 129kts
25-Nov-18 15:28 34.265534 -101.768938 179 5075ft 129kts
25-Nov-18 15:29 34.229648 -101.769030 179 5055ft 129kts
25-Nov-18 15:30 34.193919 -101.769073 179 5044ft 129kts
25-Nov-18 15:31 34.158150 -101.769073 180 5045ft 128kts
25-Nov-18 15:32 34.122498 -101.771842 183 5038ft 128kts
25-Nov-18 15:33 34.086848 -101.774766 183 5042ft 128kts
25-Nov-18 15:34 34.051325 -101.778473 189 5040ft 128kts
25-Nov-18 15:35 34.015564 -101.786649 190 4948ft 132kts
25-Nov-18 15:36 33.979045 -101.795003 190 4776ft 135kts
25-Nov-18 15:37 33.942058 -101.803415 190 4576ft 136kts
25-Nov-18 15:38 33.904805 -101.811836 190 4376ft 136kts
25-Nov-18 15:39 33.870158 -101.828013 209 4326ft 131kts
25-Nov-18 15:40 33.835938 -101.836989 174 4322ft 129kts
25-Nov-18 15:41 33.800184 -101.832219 173 4322ft 129kts
25-Nov-18 15:42 33.800143 -101.832214 173 4322ft 129kts
25-Nov-18 15:43 33.780407 -101.830084 175 4322ft 129kts
25-Nov-18 15:44 33.744508 -101.826782 175 4322ft 129kts
25-Nov-18 15:45 33.714735 -101.824343 175 4014ft 127kts
25-Nov-18 15:46 33.689240 -101.829138 183 3578ft 71kts
25-Nov-18 15:47 33.677235 -101.829031 178 3273ft 26kts

Navigation Log

Ident Type
Flight plan parsing failed, navigation log unavailable